sensor_id;sensor_type;location;lat;lon;timestamp;P1;durP1;ratioP1;P2;durP2;ratioP2
25091;SDS011;13082;52.374;4.946;2023-05-23T00:01:32;12.80;;;7.87;;
25091;SDS011;13082;52.374;4.946;2023-05-23T00:04:01;17.07;;;7.40;;
25091;SDS011;13082;52.374;4.946;2023-05-23T00:06:27;11.90;;;6.90;;
25091;SDS011;13082;52.374;4.946;2023-05-23T00:08:52;14.27;;;6.03;;
25091;SDS011;13082;52.374;4.946;2023-05-23T00:11:18;8.10;;;3.80;;
25091;SDS011;13082;52.374;4.946;2023-05-23T00:13:45;7.13;;;4.20;;
25091;SDS011;13082;52.374;4.946;2023-05-23T00:16:10;7.60;;;4.07;;
25091;SDS011;13082;52.374;4.946;2023-05-23T00:18:36;9.23;;;4.67;;
25091;SDS011;13082;52.374;4.946;2023-05-23T00:21:04;11.10;;;4.40;;
25091;SDS011;13082;52.374;4.946;2023-05-23T00:23:29;7.40;;;4.60;;
25091;SDS011;13082;52.374;4.946;2023-05-23T00:25:57;6.93;;;4.40;;
25091;SDS011;13082;52.374;4.946;2023-05-23T00:28:24;9.60;;;4.37;;
25091;SDS011;13082;52.374;4.946;2023-05-23T00:30:50;8.27;;;5.27;;
25091;SDS011;13082;52.374;4.946;2023-05-23T00:33:16;13.50;;;5.77;;
25091;SDS011;13082;52.374;4.946;2023-05-23T00:35:45;10.73;;;5.43;;
25091;SDS011;13082;52.374;4.946;2023-05-23T00:38:11;10.03;;;5.87;;
25091;SDS011;13082;52.374;4.946;2023-05-23T00:40:38;10.73;;;5.83;;
25091;SDS011;13082;52.374;4.946;2023-05-23T00:43:04;8.00;;;5.10;;
25091;SDS011;13082;52.374;4.946;2023-05-23T00:45:30;11.53;;;6.13;;
25091;SDS011;13082;52.374;4.946;2023-05-23T00:47:55;14.87;;;5.53;;
25091;SDS011;13082;52.374;4.946;2023-05-23T00:50:23;14.60;;;6.03;;
25091;SDS011;13082;52.374;4.946;2023-05-23T00:52:49;11.00;;;5.53;;
25091;SDS011;13082;52.374;4.946;2023-05-23T00:55:15;11.97;;;5.90;;
25091;SDS011;13082;52.374;4.946;2023-05-23T00:57:41;15.43;;;6.80;;
25091;SDS011;13082;52.374;4.946;2023-05-23T01:00:08;12.43;;;6.57;;
25091;SDS011;13082;52.374;4.946;2023-05-23T01:02:39;14.80;;;5.73;;
25091;SDS011;13082;52.374;4.946;2023-05-23T01:05:13;9.43;;;5.00;;
25091;SDS011;13082;52.374;4.946;2023-05-23T01:07:41;14.00;;;6.10;;
25091;SDS011;13082;52.374;4.946;2023-05-23T01:10:11;15.77;;;5.73;;
25091;SDS011;13082;52.374;4.946;2023-05-23T01:15:11;18.47;;;6.73;;
25091;SDS011;13082;52.374;4.946;2023-05-23T01:17:54;9.27;;;5.90;;
25091;SDS011;13082;52.374;4.946;2023-05-23T01:20:41;14.93;;;5.67;;
25091;SDS011;13082;52.374;4.946;2023-05-23T01:23:12;19.90;;;8.03;;
25091;SDS011;13082;52.374;4.946;2023-05-23T01:26:12;13.90;;;6.17;;
25091;SDS011;13082;52.374;4.946;2023-05-23T01:28:53;15.90;;;7.53;;
25091;SDS011;13082;52.374;4.946;2023-05-23T01:31:23;19.97;;;7.87;;
25091;SDS011;13082;52.374;4.946;2023-05-23T01:33:53;13.40;;;7.37;;
25091;SDS011;13082;52.374;4.946;2023-05-23T01:36:20;19.93;;;6.83;;
25091;SDS011;13082;52.374;4.946;2023-05-23T01:38:46;13.93;;;6.13;;
25091;SDS011;13082;52.374;4.946;2023-05-23T01:41:11;16.70;;;6.27;;
25091;SDS011;13082;52.374;4.946;2023-05-23T01:43:37;14.63;;;6.53;;
25091;SDS011;13082;52.374;4.946;2023-05-23T01:46:03;12.20;;;5.30;;
25091;SDS011;13082;52.374;4.946;2023-05-23T01:48:30;17.40;;;5.90;;
25091;SDS011;13082;52.374;4.946;2023-05-23T01:50:56;22.87;;;7.00;;
25091;SDS011;13082;52.374;4.946;2023-05-23T01:53:22;15.73;;;6.70;;
25091;SDS011;13082;52.374;4.946;2023-05-23T01:55:50;13.57;;;5.93;;
25091;SDS011;13082;52.374;4.946;2023-05-23T01:58:16;21.93;;;6.73;;
25091;SDS011;13082;52.374;4.946;2023-05-23T02:00:42;23.50;;;6.23;;
25091;SDS011;13082;52.374;4.946;2023-05-23T02:03:08;17.40;;;5.90;;
25091;SDS011;13082;52.374;4.946;2023-05-23T02:05:33;19.07;;;6.20;;
25091;SDS011;13082;52.374;4.946;2023-05-23T02:07:59;13.60;;;6.17;;
25091;SDS011;13082;52.374;4.946;2023-05-23T02:10:25;13.17;;;5.10;;
25091;SDS011;13082;52.374;4.946;2023-05-23T02:12:50;14.30;;;5.10;;
25091;SDS011;13082;52.374;4.946;2023-05-23T02:15:16;16.17;;;5.77;;
25091;SDS011;13082;52.374;4.946;2023-05-23T02:17:42;17.47;;;5.80;;
25091;SDS011;13082;52.374;4.946;2023-05-23T02:20:07;12.67;;;5.53;;
25091;SDS011;13082;52.374;4.946;2023-05-23T02:22:34;21.33;;;5.97;;
25091;SDS011;13082;52.374;4.946;2023-05-23T02:25:00;17.10;;;5.33;;
25091;SDS011;13082;52.374;4.946;2023-05-23T02:27:26;20.63;;;5.43;;
25091;SDS011;13082;52.374;4.946;2023-05-23T02:29:51;13.90;;;5.03;;
25091;SDS011;13082;52.374;4.946;2023-05-23T02:32:17;13.20;;;5.87;;
25091;SDS011;13082;52.374;4.946;2023-05-23T02:34:42;17.00;;;6.07;;
25091;SDS011;13082;52.374;4.946;2023-05-23T02:37:11;19.40;;;5.37;;
25091;SDS011;13082;52.374;4.946;2023-05-23T02:39:37;12.63;;;5.10;;
25091;SDS011;13082;52.374;4.946;2023-05-23T02:42:03;14.70;;;5.43;;
25091;SDS011;13082;52.374;4.946;2023-05-23T02:44:29;13.00;;;4.83;;
25091;SDS011;13082;52.374;4.946;2023-05-23T02:46:55;13.30;;;4.23;;
25091;SDS011;13082;52.374;4.946;2023-05-23T02:49:20;15.00;;;4.60;;
25091;SDS011;13082;52.374;4.946;2023-05-23T02:51:46;14.60;;;4.37;;
25091;SDS011;13082;52.374;4.946;2023-05-23T02:54:11;18.17;;;5.50;;
25091;SDS011;13082;52.374;4.946;2023-05-23T02:56:37;13.27;;;4.80;;
25091;SDS011;13082;52.374;4.946;2023-05-23T02:59:02;16.83;;;4.07;;
25091;SDS011;13082;52.374;4.946;2023-05-23T03:01:28;11.90;;;4.20;;
25091;SDS011;13082;52.374;4.946;2023-05-23T03:03:54;12.10;;;4.13;;
25091;SDS011;13082;52.374;4.946;2023-05-23T03:06:20;11.13;;;4.17;;
25091;SDS011;13082;52.374;4.946;2023-05-23T03:08:46;14.27;;;4.13;;
25091;SDS011;13082;52.374;4.946;2023-05-23T03:11:12;10.03;;;4.00;;
25091;SDS011;13082;52.374;4.946;2023-05-23T03:13:37;18.80;;;3.97;;
25091;SDS011;13082;52.374;4.946;2023-05-23T03:16:03;14.53;;;4.37;;
25091;SDS011;13082;52.374;4.946;2023-05-23T03:18:29;10.20;;;3.73;;
25091;SDS011;13082;52.374;4.946;2023-05-23T03:20:54;9.27;;;3.30;;
25091;SDS011;13082;52.374;4.946;2023-05-23T03:23:20;13.23;;;3.77;;
25091;SDS011;13082;52.374;4.946;2023-05-23T03:25:46;8.27;;;3.53;;
25091;SDS011;13082;52.374;4.946;2023-05-23T03:28:11;8.43;;;3.50;;
25091;SDS011;13082;52.374;4.946;2023-05-23T03:30:37;7.23;;;3.43;;
25091;SDS011;13082;52.374;4.946;2023-05-23T03:33:03;10.17;;;3.93;;
25091;SDS011;13082;52.374;4.946;2023-05-23T03:35:28;15.47;;;4.37;;
25091;SDS011;13082;52.374;4.946;2023-05-23T03:37:54;9.37;;;3.10;;
25091;SDS011;13082;52.374;4.946;2023-05-23T03:40:19;4.67;;;2.40;;
25091;SDS011;13082;52.374;4.946;2023-05-23T03:42:46;10.33;;;3.03;;
25091;SDS011;13082;52.374;4.946;2023-05-23T03:45:13;10.60;;;2.67;;
25091;SDS011;13082;52.374;4.946;2023-05-23T03:47:39;8.57;;;2.77;;
25091;SDS011;13082;52.374;4.946;2023-05-23T03:50:05;10.53;;;3.10;;
25091;SDS011;13082;52.374;4.946;2023-05-23T03:52:31;5.00;;;2.93;;
25091;SDS011;13082;52.374;4.946;2023-05-23T03:54:56;10.70;;;3.37;;
25091;SDS011;13082;52.374;4.946;2023-05-23T03:57:22;12.50;;;4.33;;
25091;SDS011;13082;52.374;4.946;2023-05-23T03:59:47;12.10;;;3.80;;
25091;SDS011;13082;52.374;4.946;2023-05-23T04:02:13;7.07;;;3.33;;
25091;SDS011;13082;52.374;4.946;2023-05-23T04:04:38;7.70;;;3.57;;
25091;SDS011;13082;52.374;4.946;2023-05-23T04:07:05;5.23;;;2.80;;
25091;SDS011;13082;52.374;4.946;2023-05-23T04:09:30;7.67;;;2.90;;
25091;SDS011;13082;52.374;4.946;2023-05-23T04:11:56;9.07;;;3.23;;
25091;SDS011;13082;52.374;4.946;2023-05-23T04:14:22;12.10;;;3.43;;
25091;SDS011;13082;52.374;4.946;2023-05-23T04:16:51;11.60;;;3.63;;
25091;SDS011;13082;52.374;4.946;2023-05-23T04:19:17;11.50;;;4.27;;
25091;SDS011;13082;52.374;4.946;2023-05-23T04:21:43;15.90;;;4.23;;
25091;SDS011;13082;52.374;4.946;2023-05-23T04:24:08;11.40;;;4.47;;
25091;SDS011;13082;52.374;4.946;2023-05-23T04:26:34;8.57;;;3.63;;
25091;SDS011;13082;52.374;4.946;2023-05-23T04:29:00;11.33;;;4.40;;
25091;SDS011;13082;52.374;4.946;2023-05-23T04:31:27;7.30;;;3.60;;
25091;SDS011;13082;52.374;4.946;2023-05-23T04:33:53;7.73;;;3.93;;
25091;SDS011;13082;52.374;4.946;2023-05-23T04:36:18;13.00;;;4.90;;
25091;SDS011;13082;52.374;4.946;2023-05-23T04:38:44;8.87;;;4.50;;
25091;SDS011;13082;52.374;4.946;2023-05-23T04:41:09;14.17;;;4.60;;
25091;SDS011;13082;52.374;4.946;2023-05-23T04:43:35;7.63;;;3.83;;
25091;SDS011;13082;52.374;4.946;2023-05-23T04:46:06;12.47;;;4.73;;
25091;SDS011;13082;52.374;4.946;2023-05-23T04:48:32;11.63;;;4.10;;
25091;SDS011;13082;52.374;4.946;2023-05-23T04:51:00;10.20;;;4.03;;
25091;SDS011;13082;52.374;4.946;2023-05-23T04:53:29;5.90;;;3.50;;
25091;SDS011;13082;52.374;4.946;2023-05-23T04:55:55;9.27;;;4.07;;
25091;SDS011;13082;52.374;4.946;2023-05-23T04:58:21;11.43;;;4.60;;
25091;SDS011;13082;52.374;4.946;2023-05-23T05:00:46;15.03;;;4.27;;
25091;SDS011;13082;52.374;4.946;2023-05-23T05:03:12;7.27;;;4.03;;
25091;SDS011;13082;52.374;4.946;2023-05-23T05:05:37;13.03;;;5.20;;
25091;SDS011;13082;52.374;4.946;2023-05-23T05:08:03;14.20;;;4.90;;
25091;SDS011;13082;52.374;4.946;2023-05-23T05:10:28;10.97;;;4.37;;
25091;SDS011;13082;52.374;4.946;2023-05-23T05:12:54;20.33;;;5.70;;
25091;SDS011;13082;52.374;4.946;2023-05-23T05:15:20;11.10;;;4.23;;
25091;SDS011;13082;52.374;4.946;2023-05-23T05:17:45;10.90;;;4.83;;
25091;SDS011;13082;52.374;4.946;2023-05-23T05:20:11;9.07;;;3.90;;
25091;SDS011;13082;52.374;4.946;2023-05-23T05:22:37;14.33;;;5.10;;
25091;SDS011;13082;52.374;4.946;2023-05-23T05:25:07;8.63;;;4.20;;
25091;SDS011;13082;52.374;4.946;2023-05-23T05:27:34;14.67;;;5.27;;
25091;SDS011;13082;52.374;4.946;2023-05-23T05:30:06;13.03;;;4.33;;
25091;SDS011;13082;52.374;4.946;2023-05-23T05:32:33;15.20;;;4.77;;
25091;SDS011;13082;52.374;4.946;2023-05-23T05:35:02;11.70;;;4.50;;
25091;SDS011;13082;52.374;4.946;2023-05-23T05:37:28;9.67;;;3.90;;
25091;SDS011;13082;52.374;4.946;2023-05-23T05:39:54;13.40;;;5.00;;
25091;SDS011;13082;52.374;4.946;2023-05-23T05:42:20;11.27;;;3.77;;
25091;SDS011;13082;52.374;4.946;2023-05-23T05:44:46;15.73;;;5.17;;
25091;SDS011;13082;52.374;4.946;2023-05-23T05:47:13;8.70;;;3.43;;
25091;SDS011;13082;52.374;4.946;2023-05-23T05:49:38;12.87;;;3.70;;
25091;SDS011;13082;52.374;4.946;2023-05-23T05:52:05;5.70;;;3.20;;
25091;SDS011;13082;52.374;4.946;2023-05-23T05:54:31;9.10;;;3.67;;
25091;SDS011;13082;52.374;4.946;2023-05-23T05:56:57;7.17;;;3.57;;
25091;SDS011;13082;52.374;4.946;2023-05-23T05:59:23;7.40;;;3.03;;
25091;SDS011;13082;52.374;4.946;2023-05-23T06:01:48;9.37;;;2.93;;
25091;SDS011;13082;52.374;4.946;2023-05-23T06:04:17;8.23;;;2.63;;
25091;SDS011;13082;52.374;4.946;2023-05-23T06:06:43;8.70;;;3.23;;
25091;SDS011;13082;52.374;4.946;2023-05-23T06:09:08;5.97;;;2.50;;
25091;SDS011;13082;52.374;4.946;2023-05-23T06:11:34;8.07;;;2.90;;
25091;SDS011;13082;52.374;4.946;2023-05-23T06:14:04;14.10;;;2.83;;
25091;SDS011;13082;52.374;4.946;2023-05-23T06:16:33;10.87;;;3.73;;
25091;SDS011;13082;52.374;4.946;2023-05-23T06:18:59;11.13;;;3.73;;
25091;SDS011;13082;52.374;4.946;2023-05-23T06:21:24;7.07;;;2.53;;
25091;SDS011;13082;52.374;4.946;2023-05-23T06:23:51;8.00;;;2.70;;
25091;SDS011;13082;52.374;4.946;2023-05-23T06:26:17;9.27;;;2.57;;
25091;SDS011;13082;52.374;4.946;2023-05-23T06:28:42;9.63;;;2.87;;
25091;SDS011;13082;52.374;4.946;2023-05-23T06:31:08;8.43;;;2.60;;
25091;SDS011;13082;52.374;4.946;2023-05-23T06:33:34;12.53;;;3.17;;
25091;SDS011;13082;52.374;4.946;2023-05-23T06:35:59;9.83;;;2.47;;
25091;SDS011;13082;52.374;4.946;2023-05-23T06:38:25;12.60;;;3.03;;
25091;SDS011;13082;52.374;4.946;2023-05-23T06:40:53;8.87;;;2.67;;
25091;SDS011;13082;52.374;4.946;2023-05-23T06:43:19;8.40;;;2.83;;
25091;SDS011;13082;52.374;4.946;2023-05-23T06:45:45;12.63;;;3.00;;
25091;SDS011;13082;52.374;4.946;2023-05-23T06:48:14;9.43;;;2.67;;
25091;SDS011;13082;52.374;4.946;2023-05-23T06:50:39;10.40;;;2.80;;
25091;SDS011;13082;52.374;4.946;2023-05-23T06:53:05;14.00;;;2.70;;
25091;SDS011;13082;52.374;4.946;2023-05-23T06:55:31;11.87;;;2.30;;
25091;SDS011;13082;52.374;4.946;2023-05-23T06:57:58;7.70;;;2.30;;
25091;SDS011;13082;52.374;4.946;2023-05-23T07:00:24;8.87;;;2.50;;
25091;SDS011;13082;52.374;4.946;2023-05-23T07:02:50;9.30;;;2.40;;
25091;SDS011;13082;52.374;4.946;2023-05-23T07:05:15;10.53;;;2.40;;
25091;SDS011;13082;52.374;4.946;2023-05-23T07:07:41;7.83;;;2.20;;
25091;SDS011;13082;52.374;4.946;2023-05-23T07:10:07;8.00;;;2.43;;
25091;SDS011;13082;52.374;4.946;2023-05-23T07:12:33;18.00;;;2.43;;
25091;SDS011;13082;52.374;4.946;2023-05-23T07:14:59;7.30;;;2.30;;
25091;SDS011;13082;52.374;4.946;2023-05-23T07:17:24;10.30;;;2.77;;
25091;SDS011;13082;52.374;4.946;2023-05-23T07:19:51;9.90;;;2.53;;
25091;SDS011;13082;52.374;4.946;2023-05-23T07:22:16;8.13;;;2.40;;
25091;SDS011;13082;52.374;4.946;2023-05-23T07:24:42;17.67;;;2.80;;
25091;SDS011;13082;52.374;4.946;2023-05-23T07:27:07;11.23;;;2.17;;
25091;SDS011;13082;52.374;4.946;2023-05-23T07:29:33;7.37;;;2.27;;
25091;SDS011;13082;52.374;4.946;2023-05-23T07:31:59;7.87;;;2.30;;
25091;SDS011;13082;52.374;4.946;2023-05-23T07:34:24;9.70;;;3.07;;
25091;SDS011;13082;52.374;4.946;2023-05-23T07:36:50;15.77;;;2.70;;
25091;SDS011;13082;52.374;4.946;2023-05-23T07:39:16;15.23;;;3.63;;
25091;SDS011;13082;52.374;4.946;2023-05-23T07:41:46;10.93;;;2.57;;
25091;SDS011;13082;52.374;4.946;2023-05-23T07:44:17;6.37;;;2.43;;
25091;SDS011;13082;52.374;4.946;2023-05-23T07:46:43;9.77;;;2.50;;
25091;SDS011;13082;52.374;4.946;2023-05-23T07:49:08;8.87;;;3.13;;
25091;SDS011;13082;52.374;4.946;2023-05-23T07:51:34;13.43;;;3.40;;
25091;SDS011;13082;52.374;4.946;2023-05-23T07:54:00;13.97;;;3.17;;
25091;SDS011;13082;52.374;4.946;2023-05-23T07:56:25;13.60;;;2.53;;
25091;SDS011;13082;52.374;4.946;2023-05-23T07:58:51;11.77;;;2.57;;
25091;SDS011;13082;52.374;4.946;2023-05-23T08:01:16;5.47;;;2.30;;
25091;SDS011;13082;52.374;4.946;2023-05-23T08:03:42;9.60;;;2.60;;
25091;SDS011;13082;52.374;4.946;2023-05-23T08:06:08;7.30;;;2.47;;
25091;SDS011;13082;52.374;4.946;2023-05-23T08:08:34;12.70;;;3.30;;
25091;SDS011;13082;52.374;4.946;2023-05-23T08:11:00;7.37;;;2.50;;
25091;SDS011;13082;52.374;4.946;2023-05-23T08:13:26;8.80;;;2.73;;
25091;SDS011;13082;52.374;4.946;2023-05-23T08:15:52;8.43;;;2.00;;
25091;SDS011;13082;52.374;4.946;2023-05-23T08:18:18;7.07;;;2.30;;
25091;SDS011;13082;52.374;4.946;2023-05-23T08:20:44;6.70;;;2.50;;
25091;SDS011;13082;52.374;4.946;2023-05-23T08:23:10;10.77;;;2.60;;
25091;SDS011;13082;52.374;4.946;2023-05-23T08:25:36;6.30;;;2.10;;
25091;SDS011;13082;52.374;4.946;2023-05-23T08:28:02;12.97;;;2.57;;
25091;SDS011;13082;52.374;4.946;2023-05-23T08:30:28;8.43;;;2.50;;
25091;SDS011;13082;52.374;4.946;2023-05-23T08:32:53;10.03;;;2.70;;
25091;SDS011;13082;52.374;4.946;2023-05-23T08:35:20;11.13;;;2.57;;
25091;SDS011;13082;52.374;4.946;2023-05-23T08:37:46;6.63;;;2.40;;
25091;SDS011;13082;52.374;4.946;2023-05-23T08:40:13;6.70;;;2.10;;
25091;SDS011;13082;52.374;4.946;2023-05-23T08:42:43;7.30;;;2.57;;
25091;SDS011;13082;52.374;4.946;2023-05-23T08:45:08;9.40;;;2.73;;
25091;SDS011;13082;52.374;4.946;2023-05-23T08:47:35;11.17;;;2.43;;
25091;SDS011;13082;52.374;4.946;2023-05-23T08:50:09;11.03;;;2.37;;
25091;SDS011;13082;52.374;4.946;2023-05-23T08:55:32;9.80;;;2.97;;
25091;SDS011;13082;52.374;4.946;2023-05-23T08:57:58;9.47;;;2.10;;
25091;SDS011;13082;52.374;4.946;2023-05-23T09:00:24;11.17;;;2.93;;
25091;SDS011;13082;52.374;4.946;2023-05-23T09:02:51;8.03;;;2.50;;
25091;SDS011;13082;52.374;4.946;2023-05-23T09:05:18;7.63;;;2.70;;
25091;SDS011;13082;52.374;4.946;2023-05-23T09:07:45;12.90;;;2.63;;
25091;SDS011;13082;52.374;4.946;2023-05-23T09:10:12;8.17;;;2.57;;
25091;SDS011;13082;52.374;4.946;2023-05-23T09:12:38;11.27;;;2.77;;
25091;SDS011;13082;52.374;4.946;2023-05-23T09:15:07;10.70;;;2.73;;
25091;SDS011;13082;52.374;4.946;2023-05-23T09:17:33;6.00;;;2.00;;
25091;SDS011;13082;52.374;4.946;2023-05-23T09:20:00;5.97;;;2.60;;
25091;SDS011;13082;52.374;4.946;2023-05-23T09:22:26;6.10;;;2.27;;
25091;SDS011;13082;52.374;4.946;2023-05-23T09:24:53;8.53;;;2.60;;
25091;SDS011;13082;52.374;4.946;2023-05-23T09:27:19;8.87;;;2.80;;
25091;SDS011;13082;52.374;4.946;2023-05-23T09:29:45;7.63;;;2.33;;
25091;SDS011;13082;52.374;4.946;2023-05-23T09:32:14;7.23;;;2.70;;
25091;SDS011;13082;52.374;4.946;2023-05-23T09:34:41;13.80;;;2.63;;
25091;SDS011;13082;52.374;4.946;2023-05-23T09:37:18;8.30;;;3.23;;
25091;SDS011;13082;52.374;4.946;2023-05-23T09:39:48;6.80;;;2.90;;
25091;SDS011;13082;52.374;4.946;2023-05-23T09:42:19;5.17;;;2.60;;
25091;SDS011;13082;52.374;4.946;2023-05-23T09:44:46;8.20;;;2.80;;
25091;SDS011;13082;52.374;4.946;2023-05-23T09:47:11;8.87;;;3.43;;
25091;SDS011;13082;52.374;4.946;2023-05-23T09:49:40;7.60;;;2.60;;
25091;SDS011;13082;52.374;4.946;2023-05-23T09:52:08;8.70;;;2.67;;
25091;SDS011;13082;52.374;4.946;2023-05-23T09:54:33;8.77;;;2.67;;
25091;SDS011;13082;52.374;4.946;2023-05-23T09:56:59;11.73;;;2.23;;
25091;SDS011;13082;52.374;4.946;2023-05-23T09:59:27;9.33;;;2.67;;
25091;SDS011;13082;52.374;4.946;2023-05-23T10:01:56;9.93;;;2.80;;
25091;SDS011;13082;52.374;4.946;2023-05-23T10:04:23;7.27;;;2.43;;
25091;SDS011;13082;52.374;4.946;2023-05-23T10:06:52;8.07;;;2.60;;
25091;SDS011;13082;52.374;4.946;2023-05-23T10:09:22;8.30;;;1.97;;
25091;SDS011;13082;52.374;4.946;2023-05-23T10:14:56;7.20;;;2.10;;
25091;SDS011;13082;52.374;4.946;2023-05-23T10:17:31;9.33;;;2.53;;
25091;SDS011;13082;52.374;4.946;2023-05-23T10:20:04;9.07;;;2.57;;
25091;SDS011;13082;52.374;4.946;2023-05-23T10:22:35;9.60;;;2.53;;
25091;SDS011;13082;52.374;4.946;2023-05-23T10:25:02;8.97;;;2.50;;
25091;SDS011;13082;52.374;4.946;2023-05-23T10:27:29;16.43;;;3.13;;
25091;SDS011;13082;52.374;4.946;2023-05-23T10:29:56;5.83;;;2.43;;
25091;SDS011;13082;52.374;4.946;2023-05-23T10:32:23;7.37;;;1.93;;
25091;SDS011;13082;52.374;4.946;2023-05-23T10:37:47;7.57;;;2.40;;
25091;SDS011;13082;52.374;4.946;2023-05-23T10:40:30;12.10;;;2.57;;
25091;SDS011;13082;52.374;4.946;2023-05-23T10:43:09;4.93;;;2.13;;
25091;SDS011;13082;52.374;4.946;2023-05-23T10:45:46;7.40;;;2.27;;
25091;SDS011;13082;52.374;4.946;2023-05-23T10:51:02;4.67;;;2.30;;
25091;SDS011;13082;52.374;4.946;2023-05-23T10:53:29;5.57;;;2.60;;
25091;SDS011;13082;52.374;4.946;2023-05-23T10:55:56;7.80;;;2.20;;
25091;SDS011;13082;52.374;4.946;2023-05-23T10:58:22;4.63;;;1.70;;
25091;SDS011;13082;52.374;4.946;2023-05-23T11:00:51;9.83;;;2.73;;
25091;SDS011;13082;52.374;4.946;2023-05-23T11:03:34;8.83;;;2.63;;
25091;SDS011;13082;52.374;4.946;2023-05-23T11:16:57;9.37;;;2.47;;
25091;SDS011;13082;52.374;4.946;2023-05-23T11:19:24;9.60;;;2.20;;
25091;SDS011;13082;52.374;4.946;2023-05-23T11:27:16;7.43;;;2.57;;
25091;SDS011;13082;52.374;4.946;2023-05-23T11:29:58;5.23;;;2.40;;
25091;SDS011;13082;52.374;4.946;2023-05-23T11:32:26;9.83;;;2.33;;
25091;SDS011;13082;52.374;4.946;2023-05-23T11:34:54;7.63;;;1.93;;
25091;SDS011;13082;52.374;4.946;2023-05-23T11:37:19;10.90;;;2.90;;
25091;SDS011;13082;52.374;4.946;2023-05-23T11:39:47;10.43;;;2.23;;
25091;SDS011;13082;52.374;4.946;2023-05-23T11:42:13;10.83;;;2.33;;
25091;SDS011;13082;52.374;4.946;2023-05-23T11:44:39;5.87;;;2.10;;
25091;SDS011;13082;52.374;4.946;2023-05-23T11:47:05;10.93;;;3.07;;
25091;SDS011;13082;52.374;4.946;2023-05-23T11:49:33;6.43;;;2.23;;
25091;SDS011;13082;52.374;4.946;2023-05-23T11:52:02;4.40;;;1.90;;
25091;SDS011;13082;52.374;4.946;2023-05-23T11:54:28;7.77;;;2.77;;
25091;SDS011;13082;52.374;4.946;2023-05-23T11:56:54;6.63;;;2.33;;
25091;SDS011;13082;52.374;4.946;2023-05-23T11:59:20;5.63;;;2.03;;
25091;SDS011;13082;52.374;4.946;2023-05-23T12:01:48;6.07;;;2.40;;
25091;SDS011;13082;52.374;4.946;2023-05-23T12:04:13;5.33;;;2.07;;
25091;SDS011;13082;52.374;4.946;2023-05-23T12:06:39;5.03;;;1.93;;
25091;SDS011;13082;52.374;4.946;2023-05-23T12:09:06;7.03;;;2.13;;
25091;SDS011;13082;52.374;4.946;2023-05-23T12:11:35;8.53;;;2.90;;
25091;SDS011;13082;52.374;4.946;2023-05-23T12:14:01;4.70;;;2.20;;
25091;SDS011;13082;52.374;4.946;2023-05-23T12:16:30;5.20;;;2.23;;
25091;SDS011;13082;52.374;4.946;2023-05-23T12:18:57;5.10;;;2.13;;
25091;SDS011;13082;52.374;4.946;2023-05-23T12:21:24;7.67;;;2.77;;
25091;SDS011;13082;52.374;4.946;2023-05-23T12:23:50;7.43;;;2.30;;
25091;SDS011;13082;52.374;4.946;2023-05-23T12:26:16;4.10;;;1.87;;
25091;SDS011;13082;52.374;4.946;2023-05-23T12:28:42;7.03;;;2.20;;
25091;SDS011;13082;52.374;4.946;2023-05-23T12:33:43;6.57;;;1.93;;
25091;SDS011;13082;52.374;4.946;2023-05-23T12:36:10;6.23;;;2.07;;
25091;SDS011;13082;52.374;4.946;2023-05-23T12:38:36;8.43;;;2.03;;
25091;SDS011;13082;52.374;4.946;2023-05-23T12:41:09;6.43;;;1.80;;
25091;SDS011;13082;52.374;4.946;2023-05-23T12:43:37;9.17;;;2.43;;
25091;SDS011;13082;52.374;4.946;2023-05-23T12:46:03;5.77;;;2.27;;
25091;SDS011;13082;52.374;4.946;2023-05-23T12:48:30;10.80;;;2.20;;
25091;SDS011;13082;52.374;4.946;2023-05-23T12:50:56;5.40;;;2.27;;
25091;SDS011;13082;52.374;4.946;2023-05-23T12:53:21;5.50;;;2.17;;
25091;SDS011;13082;52.374;4.946;2023-05-23T12:55:47;4.83;;;1.87;;
25091;SDS011;13082;52.374;4.946;2023-05-23T12:58:13;6.00;;;2.10;;
25091;SDS011;13082;52.374;4.946;2023-05-23T13:00:38;5.17;;;1.87;;
25091;SDS011;13082;52.374;4.946;2023-05-23T13:03:04;5.10;;;1.77;;
25091;SDS011;13082;52.374;4.946;2023-05-23T13:05:30;6.83;;;2.40;;
25091;SDS011;13082;52.374;4.946;2023-05-23T13:07:56;8.53;;;2.53;;
25091;SDS011;13082;52.374;4.946;2023-05-23T13:10:23;6.67;;;2.00;;
25091;SDS011;13082;52.374;4.946;2023-05-23T13:12:49;7.23;;;1.93;;
25091;SDS011;13082;52.374;4.946;2023-05-23T13:15:14;5.43;;;2.17;;
25091;SDS011;13082;52.374;4.946;2023-05-23T13:17:41;4.80;;;1.70;;
25091;SDS011;13082;52.374;4.946;2023-05-23T13:20:06;4.17;;;2.03;;
25091;SDS011;13082;52.374;4.946;2023-05-23T13:22:33;6.17;;;1.60;;
25091;SDS011;13082;52.374;4.946;2023-05-23T13:24:59;7.43;;;2.20;;
25091;SDS011;13082;52.374;4.946;2023-05-23T13:27:24;5.23;;;1.87;;
25091;SDS011;13082;52.374;4.946;2023-05-23T13:29:50;3.30;;;1.77;;
25091;SDS011;13082;52.374;4.946;2023-05-23T13:32:16;5.53;;;1.80;;
25091;SDS011;13082;52.374;4.946;2023-05-23T13:34:41;3.50;;;2.13;;
25091;SDS011;13082;52.374;4.946;2023-05-23T13:37:07;5.03;;;2.47;;
25091;SDS011;13082;52.374;4.946;2023-05-23T13:39:33;7.07;;;2.40;;
25091;SDS011;13082;52.374;4.946;2023-05-23T13:41:58;6.33;;;2.33;;
25091;SDS011;13082;52.374;4.946;2023-05-23T13:44:24;6.97;;;2.97;;
25091;SDS011;13082;52.374;4.946;2023-05-23T13:46:50;3.70;;;1.50;;
25091;SDS011;13082;52.374;4.946;2023-05-23T13:49:15;5.93;;;2.10;;
25091;SDS011;13082;52.374;4.946;2023-05-23T13:51:41;4.50;;;1.90;;
25091;SDS011;13082;52.374;4.946;2023-05-23T13:54:08;4.60;;;1.87;;
25091;SDS011;13082;52.374;4.946;2023-05-23T13:56:34;6.53;;;1.83;;
25091;SDS011;13082;52.374;4.946;2023-05-23T13:59:00;7.37;;;1.93;;
25091;SDS011;13082;52.374;4.946;2023-05-23T14:01:26;6.43;;;1.80;;
25091;SDS011;13082;52.374;4.946;2023-05-23T14:03:52;4.70;;;1.63;;
25091;SDS011;13082;52.374;4.946;2023-05-23T14:06:18;5.33;;;1.93;;
25091;SDS011;13082;52.374;4.946;2023-05-23T14:08:44;8.37;;;2.33;;
25091;SDS011;13082;52.374;4.946;2023-05-23T14:11:10;6.53;;;1.93;;
25091;SDS011;13082;52.374;4.946;2023-05-23T14:13:36;6.77;;;2.27;;
25091;SDS011;13082;52.374;4.946;2023-05-23T14:16:01;6.50;;;2.20;;
25091;SDS011;13082;52.374;4.946;2023-05-23T14:18:27;14.00;;;2.63;;
25091;SDS011;13082;52.374;4.946;2023-05-23T14:20:53;3.60;;;1.53;;
25091;SDS011;13082;52.374;4.946;2023-05-23T14:23:18;5.60;;;1.87;;
25091;SDS011;13082;52.374;4.946;2023-05-23T14:25:44;4.47;;;1.90;;
25091;SDS011;13082;52.374;4.946;2023-05-23T14:28:10;4.47;;;1.80;;
25091;SDS011;13082;52.374;4.946;2023-05-23T14:30:37;3.23;;;1.53;;
25091;SDS011;13082;52.374;4.946;2023-05-23T14:33:02;3.93;;;1.67;;
25091;SDS011;13082;52.374;4.946;2023-05-23T14:35:28;3.50;;;1.63;;
25091;SDS011;13082;52.374;4.946;2023-05-23T14:37:53;8.33;;;2.00;;
25091;SDS011;13082;52.374;4.946;2023-05-23T14:40:19;7.50;;;2.00;;
25091;SDS011;13082;52.374;4.946;2023-05-23T14:42:45;3.43;;;1.80;;
25091;SDS011;13082;52.374;4.946;2023-05-23T14:45:10;5.40;;;2.23;;
25091;SDS011;13082;52.374;4.946;2023-05-23T14:47:36;4.47;;;1.77;;
25091;SDS011;13082;52.374;4.946;2023-05-23T14:50:02;4.40;;;2.30;;
25091;SDS011;13082;52.374;4.946;2023-05-23T14:52:28;9.00;;;1.97;;
25091;SDS011;13082;52.374;4.946;2023-05-23T14:54:54;7.83;;;2.53;;
25091;SDS011;13082;52.374;4.946;2023-05-23T14:57:20;5.07;;;1.87;;
25091;SDS011;13082;52.374;4.946;2023-05-23T14:59:45;5.00;;;1.80;;
25091;SDS011;13082;52.374;4.946;2023-05-23T15:02:11;6.73;;;1.60;;
25091;SDS011;13082;52.374;4.946;2023-05-23T15:04:37;8.57;;;2.30;;
25091;SDS011;13082;52.374;4.946;2023-05-23T15:07:02;4.23;;;1.60;;
25091;SDS011;13082;52.374;4.946;2023-05-23T15:09:28;3.93;;;1.53;;
25091;SDS011;13082;52.374;4.946;2023-05-23T15:11:54;7.53;;;1.77;;
25091;SDS011;13082;52.374;4.946;2023-05-23T15:14:20;4.13;;;1.63;;